Time;durP1;ratioP1;P1;durP2;ratioP2;P2;SDS_P1;SDS_P2;PMS_P1;PMS_P2;Temp;Humidity;BMP_temperature;BMP_pressure;BME280_temperature;BME280_humidity;BME280_pressure;Samples;Min_cycle;Max_cycle;Signal;HPM_P1;HPM_P2
2023/08/25 00:02:23;;;;;;;3.92;3.10;;;;;;;;;;5036935;28;20383;-80
2023/08/25 00:04:49;;;;;;;5.00;3.33;;;;;;;;;;5038770;28;20394;-80
2023/08/25 00:07:15;;;;;;;5.18;3.45;;;;;;;;;;5039146;28;20892;-80
2023/08/25 00:09:41;;;;;;;6.32;3.30;;;;;;;;;;5039345;28;20444;-81
2023/08/25 00:12:07;;;;;;;6.30;3.42;;;;;;;;;;5039793;28;20390;-81
2023/08/25 00:14:33;;;;;;;5.45;3.38;;;;;;;;;;5040018;28;20491;-81
2023/08/25 00:16:59;;;;;;;5.18;3.63;;;;;;;;;;5037516;28;20533;-80
2023/08/25 00:19:26;;;;;;;4.53;3.50;;;;;;;;;;5037233;28;20399;-80
2023/08/25 00:21:52;;;;;;;5.23;3.77;;;;;;;;;;5038935;28;20402;-80
2023/08/25 00:24:18;;;;;;;8.05;4.47;;;;;;;;;;5039137;28;20391;-81
2023/08/25 00:26:44;;;;;;;8.55;4.95;;;;;;;;;;5039999;28;20395;-81
2023/08/25 00:29:10;;;;;;;7.30;4.30;;;;;;;;;;5042123;28;20448;-81
2023/08/25 00:31:36;;;;;;;6.78;4.38;;;;;;;;;;5033213;28;20388;-81
2023/08/25 00:34:02;;;;;;;8.38;4.68;;;;;;;;;;5041359;28;20891;-80
2023/08/25 00:36:28;;;;;;;7.85;4.95;;;;;;;;;;5041913;28;20411;-81
2023/08/25 00:38:54;;;;;;;7.05;4.80;;;;;;;;;;5040554;28;20568;-81
2023/08/25 00:41:20;;;;;;;8.45;4.88;;;;;;;;;;5040047;28;20423;-80
2023/08/25 00:43:48;;;;;;;7.05;5.30;;;;;;;;;;5040467;28;20474;-81
2023/08/25 00:46:14;;;;;;;9.10;5.28;;;;;;;;;;5040084;28;20379;-81
2023/08/25 00:48:41;;;;;;;9.57;5.00;;;;;;;;;;5041034;28;20436;-80
2023/08/25 00:51:09;;;;;;;6.50;4.20;;;;;;;;;;5037215;28;20474;-81
2023/08/25 00:53:35;;;;;;;6.13;3.70;;;;;;;;;;5041529;28;20848;-81
2023/08/25 00:56:02;;;;;;;6.47;3.70;;;;;;;;;;5026436;28;20408;-81
2023/08/25 00:58:28;;;;;;;4.53;3.30;;;;;;;;;;5041611;28;20429;-81
2023/08/25 01:00:55;;;;;;;4.03;3.10;;;;;;;;;;5043212;28;20709;-81
2023/08/25 01:03:21;;;;;;;4.17;3.03;;;;;;;;;;5011518;28;20426;-81
2023/08/25 01:05:48;;;;;;;4.75;2.97;;;;;;;;;;5044272;28;20467;-81
2023/08/25 01:08:15;;;;;;;4.22;3.10;;;;;;;;;;5041486;28;20394;-81
2023/08/25 01:10:53;;;;;;;4.72;3.17;;;;;;;;;;5044096;28;20430;-81
2023/08/25 01:13:31;;;;;;;4.50;3.30;;;;;;;;;;5044401;28;20409;-80
2023/08/25 01:15:57;;;;;;;6.88;3.05;;;;;;;;;;5044930;28;20387;-81
2023/08/25 01:18:29;;;;;;;4.55;3.22;;;;;;;;;;5043794;28;20984;-81
2023/08/25 01:20:56;;;;;;;5.43;3.30;;;;;;;;;;5044598;28;20426;-81
2023/08/25 01:23:40;;;;;;;4.07;3.00;;;;;;;;;;5045199;28;20423;-81
2023/08/25 01:26:07;;;;;;;4.53;2.90;;;;;;;;;;5033578;28;20470;-80
2023/08/25 01:28:33;;;;;;;4.30;3.40;;;;;;;;;;5044105;28;20443;-80
2023/08/25 01:30:59;;;;;;;6.50;3.13;;;;;;;;;;5044965;28;20414;-81
2023/08/25 01:33:32;;;;;;;5.53;3.58;;;;;;;;;;5046139;28;20399;-80
2023/08/25 01:36:06;;;;;;;5.20;3.53;;;;;;;;;;5043590;28;20390;-81
2023/08/25 01:38:31;;;;;;;8.07;4.57;;;;;;;;;;5042611;28;20419;-82
2023/08/25 01:41:02;;;;;;;7.37;4.60;;;;;;;;;;5041737;28;20402;-82
2023/08/25 01:43:29;;;;;;;4.67;3.70;;;;;;;;;;5045735;28;20387;-81
2023/08/25 01:45:56;;;;;;;5.38;3.25;;;;;;;;;;5043097;28;20943;-80
2023/08/25 01:48:23;;;;;;;4.47;3.15;;;;;;;;;;5042217;28;20395;-81
2023/08/25 01:50:49;;;;;;;5.60;3.70;;;;;;;;;;5041653;28;20383;-80
2023/08/25 01:53:16;;;;;;;7.45;6.03;;;;;;;;;;5041206;28;20437;-81
2023/08/25 01:55:42;;;;;;;10.15;8.18;;;;;;;;;;5041126;28;20387;-80
2023/08/25 01:58:08;;;;;;;8.15;6.22;;;;;;;;;;5041691;28;20390;-81
2023/08/25 02:00:33;;;;;;;8.77;6.97;;;;;;;;;;5041372;28;20392;-82
2023/08/25 02:02:59;;;;;;;10.57;6.90;;;;;;;;;;5042686;28;20391;-81
2023/08/25 02:05:26;;;;;;;8.23;6.10;;;;;;;;;;5044103;28;20400;-81
2023/08/25 02:07:52;;;;;;;8.25;6.03;;;;;;;;;;5043913;28;20391;-81
2023/08/25 02:10:18;;;;;;;8.68;5.95;;;;;;;;;;5042582;28;20455;-81
2023/08/25 02:12:43;;;;;;;7.10;5.43;;;;;;;;;;5044834;28;20399;-81
2023/08/25 02:15:10;;;;;;;7.13;4.70;;;;;;;;;;5043113;28;20486;-81
2023/08/25 02:17:36;;;;;;;5.85;4.72;;;;;;;;;;5044536;28;20415;-81
2023/08/25 02:20:04;;;;;;;6.13;4.15;;;;;;;;;;5034223;28;20383;-81
2023/08/25 02:22:30;;;;;;;6.43;3.90;;;;;;;;;;5043726;28;20415;-80
2023/08/25 02:24:56;;;;;;;4.22;3.63;;;;;;;;;;5044008;28;20398;-81
2023/08/25 02:27:22;;;;;;;4.82;3.47;;;;;;;;;;5043927;28;20394;-81
2023/08/25 02:29:48;;;;;;;5.00;3.20;;;;;;;;;;5042090;28;20399;-81
2023/08/25 02:32:14;;;;;;;4.15;3.60;;;;;;;;;;5044997;28;20383;-81
2023/08/25 02:34:40;;;;;;;6.35;3.50;;;;;;;;;;5041874;28;20450;-81
2023/08/25 02:37:06;;;;;;;4.18;3.40;;;;;;;;;;5044264;28;20391;-81
2023/08/25 02:39:32;;;;;;;4.97;3.83;;;;;;;;;;5045605;28;20446;-82
2023/08/25 02:41:58;;;;;;;5.68;3.55;;;;;;;;;;5046184;28;20391;-81
2023/08/25 02:44:24;;;;;;;3.92;3.17;;;;;;;;;;5045104;28;20381;-81
2023/08/25 02:46:50;;;;;;;5.82;3.65;;;;;;;;;;5043518;28;20407;-82
2023/08/25 02:49:16;;;;;;;3.60;3.10;;;;;;;;;;5044674;28;20379;-81
2023/08/25 02:51:42;;;;;;;6.63;4.13;;;;;;;;;;5042427;28;20470;-81
2023/08/25 02:54:08;;;;;;;4.32;3.78;;;;;;;;;;5044264;28;20458;-81
2023/08/25 02:56:35;;;;;;;4.35;3.33;;;;;;;;;;5043462;28;21381;-81
2023/08/25 02:59:02;;;;;;;6.10;3.80;;;;;;;;;;5042225;28;20467;-81
2023/08/25 03:01:28;;;;;;;6.05;3.40;;;;;;;;;;5043151;28;20379;-81
2023/08/25 03:03:55;;;;;;;4.55;3.50;;;;;;;;;;5042224;28;20466;-81
2023/08/25 03:06:21;;;;;;;4.93;3.97;;;;;;;;;;5044196;28;20387;-81
2023/08/25 03:08:47;;;;;;;6.20;3.40;;;;;;;;;;5043304;28;20442;-81
2023/08/25 03:11:13;;;;;;;4.80;3.50;;;;;;;;;;5042791;28;20911;-81
2023/08/25 03:13:39;;;;;;;5.88;4.07;;;;;;;;;;5043182;28;20798;-81
2023/08/25 03:16:07;;;;;;;5.45;3.97;;;;;;;;;;5044327;28;20402;-81
2023/08/25 03:18:33;;;;;;;4.80;3.42;;;;;;;;;;5043485;28;20418;-81
2023/08/25 03:20:59;;;;;;;5.95;3.72;;;;;;;;;;5043093;28;20393;-81
2023/08/25 03:23:25;;;;;;;3.65;3.22;;;;;;;;;;5043308;28;20387;-82
2023/08/25 03:25:51;;;;;;;4.18;3.78;;;;;;;;;;5041508;28;20383;-81
2023/08/25 03:28:17;;;;;;;5.32;4.05;;;;;;;;;;5042524;28;20394;-81
2023/08/25 03:30:43;;;;;;;5.88;3.95;;;;;;;;;;5044135;28;20794;-81
2023/08/25 03:33:09;;;;;;;4.82;4.20;;;;;;;;;;5046892;28;20387;-81
2023/08/25 03:35:36;;;;;;;6.03;4.03;;;;;;;;;;5047278;28;20426;-81
2023/08/25 03:38:02;;;;;;;5.57;4.32;;;;;;;;;;5046539;28;20421;-81
2023/08/25 03:40:28;;;;;;;5.10;3.85;;;;;;;;;;5047008;28;20448;-81
2023/08/25 03:42:54;;;;;;;6.85;5.05;;;;;;;;;;5047241;28;20447;-81
2023/08/25 03:45:20;;;;;;;8.10;5.32;;;;;;;;;;5046910;28;21189;-81
2023/08/25 03:47:47;;;;;;;5.05;4.10;;;;;;;;;;5047657;28;20391;-81
2023/08/25 03:50:13;;;;;;;5.70;4.68;;;;;;;;;;5046629;28;20397;-81
2023/08/25 03:52:39;;;;;;;5.03;3.90;;;;;;;;;;5046099;28;20817;-81
2023/08/25 03:55:05;;;;;;;5.33;4.27;;;;;;;;;;5046367;28;20900;-81
2023/08/25 03:57:31;;;;;;;5.30;4.18;;;;;;;;;;5046981;28;20410;-81
2023/08/25 03:59:57;;;;;;;4.70;4.20;;;;;;;;;;5046696;28;20390;-81
2023/08/25 04:02:23;;;;;;;4.85;3.83;;;;;;;;;;5043908;28;20397;-81
2023/08/25 04:04:49;;;;;;;3.83;3.42;;;;;;;;;;5044418;28;20414;-82
2023/08/25 04:07:15;;;;;;;4.68;4.03;;;;;;;;;;5045833;28;20403;-82
2023/08/25 04:09:41;;;;;;;4.28;3.90;;;;;;;;;;5045539;28;20383;-81
2023/08/25 04:12:07;;;;;;;4.07;3.67;;;;;;;;;;5043957;28;20424;-82
2023/08/25 04:14:34;;;;;;;6.55;4.20;;;;;;;;;;5027035;28;20415;-81
2023/08/25 04:17:00;;;;;;;4.47;3.60;;;;;;;;;;5040382;28;20432;-81
2023/08/25 04:19:26;;;;;;;4.13;3.20;;;;;;;;;;5044438;28;20832;-81
2023/08/25 04:21:52;;;;;;;5.90;3.78;;;;;;;;;;5044060;28;20399;-81
2023/08/25 04:24:18;;;;;;;5.40;3.90;;;;;;;;;;5045873;28;20386;-81
2023/08/25 04:26:44;;;;;;;3.70;3.40;;;;;;;;;;5045391;28;20848;-81
2023/08/25 04:29:10;;;;;;;4.70;3.78;;;;;;;;;;5045311;28;20714;-81
2023/08/25 04:31:37;;;;;;;4.72;3.92;;;;;;;;;;5042033;28;20494;-81
2023/08/25 04:34:05;;;;;;;5.87;4.00;;;;;;;;;;5044741;28;20461;-81
2023/08/25 04:36:32;;;;;;;4.80;3.83;;;;;;;;;;5045530;28;20414;-81
2023/08/25 04:38:58;;;;;;;4.70;4.18;;;;;;;;;;5045290;28;20379;-81
2023/08/25 04:41:24;;;;;;;5.32;4.65;;;;;;;;;;5044467;28;20925;-81
2023/08/25 04:43:50;;;;;;;5.70;3.88;;;;;;;;;;5035816;28;20403;-80
2023/08/25 04:46:16;;;;;;;5.15;3.83;;;;;;;;;;5044494;28;20401;-81
2023/08/25 04:48:45;;;;;;;4.20;3.53;;;;;;;;;;5044762;28;20397;-81
2023/08/25 04:51:11;;;;;;;4.93;3.75;;;;;;;;;;5044976;28;20418;-80
2023/08/25 04:53:38;;;;;;;5.63;4.30;;;;;;;;;;5044890;28;20423;-80
2023/08/25 04:56:04;;;;;;;3.90;3.50;;;;;;;;;;5042503;28;20402;-81
2023/08/25 04:58:31;;;;;;;3.95;3.50;;;;;;;;;;5043562;28;20387;-80
2023/08/25 05:00:57;;;;;;;5.28;3.38;;;;;;;;;;5043055;28;20446;-80
2023/08/25 05:03:23;;;;;;;6.80;3.90;;;;;;;;;;5045129;28;20421;-80
2023/08/25 05:05:49;;;;;;;4.80;3.75;;;;;;;;;;5045351;28;20470;-80
2023/08/25 05:08:15;;;;;;;4.55;3.88;;;;;;;;;;5044309;28;20398;-80
2023/08/25 05:10:41;;;;;;;8.55;4.82;;;;;;;;;;5043311;28;20418;-81
2023/08/25 05:13:07;;;;;;;5.28;4.13;;;;;;;;;;5042150;28;20795;-80
2023/08/25 05:15:33;;;;;;;4.80;4.40;;;;;;;;;;5043117;28;21072;-81
2023/08/25 05:17:59;;;;;;;4.77;4.27;;;;;;;;;;5043757;28;20416;-81
2023/08/25 05:20:25;;;;;;;4.73;3.97;;;;;;;;;;5042966;28;20425;-80
2023/08/25 05:22:51;;;;;;;5.05;3.70;;;;;;;;;;5043731;28;20470;-80
2023/08/25 05:25:20;;;;;;;5.15;3.63;;;;;;;;;;5043560;28;20384;-81
2023/08/25 05:27:47;;;;;;;6.53;3.53;;;;;;;;;;5043801;28;20401;-80
2023/08/25 05:30:13;;;;;;;5.00;4.20;;;;;;;;;;5029420;28;20409;-81
2023/08/25 05:32:39;;;;;;;4.70;4.20;;;;;;;;;;5042783;28;20451;-81
2023/08/25 05:35:05;;;;;;;4.53;3.88;;;;;;;;;;5042276;28;20442;-81
2023/08/25 05:37:33;;;;;;;4.38;3.95;;;;;;;;;;5043457;28;20434;-80
2023/08/25 05:39:59;;;;;;;4.57;3.80;;;;;;;;;;5058666;28;20398;-80
2023/08/25 05:42:31;;;;;;;6.47;3.75;;;;;;;;;;5043172;28;20391;-80
2023/08/25 05:44:57;;;;;;;4.35;3.60;;;;;;;;;;5042476;28;20789;-80
2023/08/25 05:47:23;;;;;;;4.03;3.60;;;;;;;;;;5043119;28;20395;-80
2023/08/25 05:49:50;;;;;;;6.38;4.35;;;;;;;;;;5047356;28;20384;-81
2023/08/25 05:52:16;;;;;;;7.13;4.20;;;;;;;;;;5042888;28;20473;-81
2023/08/25 05:54:42;;;;;;;5.60;4.75;;;;;;;;;;5041444;28;20423;-81
2023/08/25 05:57:08;;;;;;;5.43;4.93;;;;;;;;;;5043821;28;20387;-80
2023/08/25 05:59:34;;;;;;;5.93;4.25;;;;;;;;;;5059134;28;20387;-80
2023/08/25 06:02:00;;;;;;;4.30;3.90;;;;;;;;;;5042878;28;20387;-81
2023/08/25 06:04:27;;;;;;;7.03;4.80;;;;;;;;;;5042587;28;20414;-80
2023/08/25 06:06:53;;;;;;;4.80;4.30;;;;;;;;;;5040603;28;20415;-81
2023/08/25 06:09:19;;;;;;;5.22;4.03;;;;;;;;;;5043130;28;20461;-81
2023/08/25 06:11:45;;;;;;;4.30;3.90;;;;;;;;;;5035400;28;20420;-81
2023/08/25 06:14:12;;;;;;;4.75;3.85;;;;;;;;;;5037315;28;20427;-80
2023/08/25 06:16:41;;;;;;;6.95;4.57;;;;;;;;;;5043298;28;20371;-81
2023/08/25 06:19:08;;;;;;;5.28;4.40;;;;;;;;;;5044062;28;20383;-81
2023/08/25 06:21:34;;;;;;;4.30;3.53;;;;;;;;;;5042043;28;20394;-80
2023/08/25 06:24:00;;;;;;;5.65;4.28;;;;;;;;;;5043234;28;20387;-81
2023/08/25 06:26:26;;;;;;;3.90;3.35;;;;;;;;;;5040965;28;20405;-81
2023/08/25 06:28:53;;;;;;;7.05;4.55;;;;;;;;;;5033362;28;20478;-81
2023/08/25 06:31:19;;;;;;;4.78;3.58;;;;;;;;;;5039474;28;20813;-82
2023/08/25 06:33:46;;;;;;;4.10;3.70;;;;;;;;;;5042192;28;20450;-81
2023/08/25 06:36:12;;;;;;;5.28;4.10;;;;;;;;;;5042151;28;20398;-81
2023/08/25 06:38:38;;;;;;;6.00;4.50;;;;;;;;;;5036811;28;20415;-81
2023/08/25 06:41:04;;;;;;;6.22;4.65;;;;;;;;;;5041976;28;20410;-82
2023/08/25 06:43:31;;;;;;;7.18;5.00;;;;;;;;;;5041011;28;20385;-81
2023/08/25 06:45:57;;;;;;;5.95;4.32;;;;;;;;;;5023268;28;20383;-81
2023/08/25 06:48:23;;;;;;;5.25;4.35;;;;;;;;;;5041463;28;20398;-81
2023/08/25 06:50:49;;;;;;;6.05;4.20;;;;;;;;;;5040031;28;20860;-81
2023/08/25 06:53:17;;;;;;;5.38;3.67;;;;;;;;;;5041367;28;20394;-84
2023/08/25 06:55:43;;;;;;;5.78;4.00;;;;;;;;;;5044731;28;20414;-82
2023/08/25 06:58:09;;;;;;;6.50;4.40;;;;;;;;;;5058747;28;20394;-82
2023/08/25 07:00:35;;;;;;;6.30;4.10;;;;;;;;;;5043986;28;20881;-83
2023/08/25 07:03:03;;;;;;;5.77;3.83;;;;;;;;;;5041288;28;20379;-82
2023/08/25 07:05:29;;;;;;;6.80;4.32;;;;;;;;;;5047770;28;20394;-81
2023/08/25 07:07:55;;;;;;;8.23;4.80;;;;;;;;;;5040339;28;20423;-82
2023/08/25 07:10:21;;;;;;;5.73;5.10;;;;;;;;;;5043291;28;20458;-81
2023/08/25 07:12:48;;;;;;;5.18;3.85;;;;;;;;;;5043651;28;20386;-81
2023/08/25 07:15:14;;;;;;;6.43;4.50;;;;;;;;;;5043465;28;20785;-81
2023/08/25 07:17:40;;;;;;;4.95;4.28;;;;;;;;;;5041970;28;20398;-81
2023/08/25 07:20:08;;;;;;;4.32;3.47;;;;;;;;;;5041733;28;20391;-81
2023/08/25 07:22:34;;;;;;;5.53;3.63;;;;;;;;;;5040917;28;20390;-82
2023/08/25 07:25:00;;;;;;;4.17;2.93;;;;;;;;;;5042564;28;20426;-82
2023/08/25 07:27:26;;;;;;;4.07;3.33;;;;;;;;;;5042471;28;20425;-81
2023/08/25 07:29:53;;;;;;;4.65;3.22;;;;;;;;;;5040711;28;20845;-82
2023/08/25 07:32:19;;;;;;;6.63;3.50;;;;;;;;;;5039435;28;20405;-82
2023/08/25 07:34:45;;;;;;;4.75;3.92;;;;;;;;;;5041249;28;20419;-82
2023/08/25 07:37:11;;;;;;;5.40;3.72;;;;;;;;;;5041936;28;20458;-81
2023/08/25 07:39:37;;;;;;;5.55;3.70;;;;;;;;;;5041687;28;20409;-82
2023/08/25 07:42:03;;;;;;;3.83;3.35;;;;;;;;;;5041434;28;20402;-83
2023/08/25 07:44:29;;;;;;;7.27;3.30;;;;;;;;;;5042153;28;20414;-81
2023/08/25 07:46:55;;;;;;;4.13;3.05;;;;;;;;;;5037339;28;20464;-82
2023/08/25 07:49:21;;;;;;;4.65;2.92;;;;;;;;;;5023511;28;20407;-82
2023/08/25 07:51:47;;;;;;;5.47;3.70;;;;;;;;;;5043358;28;20391;-82
2023/08/25 07:54:13;;;;;;;3.72;3.05;;;;;;;;;;5043503;28;20422;-82
2023/08/25 07:56:39;;;;;;;3.70;3.35;;;;;;;;;;5039523;28;20404;-82
2023/08/25 07:59:05;;;;;;;4.72;3.60;;;;;;;;;;5034916;28;20458;-82
2023/08/25 08:01:32;;;;;;;5.60;4.32;;;;;;;;;;5039843;28;20415;-82
2023/08/25 08:03:58;;;;;;;5.20;3.63;;;;;;;;;;5039985;28;20387;-81
2023/08/25 08:06:24;;;;;;;5.47;3.65;;;;;;;;;;5040160;28;20414;-81
2023/08/25 08:08:50;;;;;;;4.33;3.13;;;;;;;;;;5041651;28;20441;-81
2023/08/25 08:11:16;;;;;;;3.80;3.40;;;;;;;;;;5040685;28;20391;-81
2023/08/25 08:13:42;;;;;;;6.18;3.45;;;;;;;;;;5040606;28;20498;-82
2023/08/25 08:16:08;;;;;;;3.92;3.35;;;;;;;;;;5041486;28;20391;-81
2023/08/25 08:18:34;;;;;;;6.05;3.33;;;;;;;;;;5045782;28;20429;-82
2023/08/25 08:21:01;;;;;;;3.00;2.78;;;;;;;;;;5046443;28;20912;-81
2023/08/25 08:23:27;;;;;;;4.07;3.05;;;;;;;;;;5045325;28;20414;-82
2023/08/25 08:25:54;;;;;;;4.13;3.58;;;;;;;;;;5044665;28;20482;-82
2023/08/25 08:28:20;;;;;;;3.38;2.95;;;;;;;;;;5045013;28;20744;-81
2023/08/25 08:30:46;;;;;;;4.90;3.00;;;;;;;;;;5045721;28;20411;-82
2023/08/25 08:33:12;;;;;;;2.90;2.65;;;;;;;;;;5044723;28;20391;-82
2023/08/25 08:35:38;;;;;;;3.00;2.60;;;;;;;;;;5043703;28;20415;-82
2023/08/25 08:38:05;;;;;;;3.90;2.95;;;;;;;;;;5043883;28;20472;-82
2023/08/25 08:40:32;;;;;;;3.00;2.70;;;;;;;;;;5043280;28;20439;-82
2023/08/25 08:43:02;;;;;;;3.10;2.75;;;;;;;;;;5043781;28;20410;-82
2023/08/25 08:45:30;;;;;;;3.23;2.53;;;;;;;;;;5043951;28;20379;-82
2023/08/25 08:47:56;;;;;;;2.83;2.63;;;;;;;;;;5043851;28;20734;-82
2023/08/25 08:50:22;;;;;;;3.17;2.80;;;;;;;;;;5044646;28;20403;-82
2023/08/25 08:52:49;;;;;;;3.40;2.80;;;;;;;;;;5044908;28;20379;-82
2023/08/25 08:55:16;;;;;;;3.67;2.60;;;;;;;;;;5045294;28;20418;-82
2023/08/25 08:57:43;;;;;;;3.00;2.50;;;;;;;;;;5043703;28;20382;-82
2023/08/25 09:00:12;;;;;;;3.42;2.60;;;;;;;;;;5045230;28;20409;-82
2023/08/25 09:02:38;;;;;;;3.35;3.05;;;;;;;;;;5041152;28;20431;-82
2023/08/25 09:05:05;;;;;;;4.00;3.70;;;;;;;;;;5043566;28;20387;-82
2023/08/25 09:07:33;;;;;;;3.40;3.10;;;;;;;;;;5044015;28;20386;-82
2023/08/25 09:10:00;;;;;;;4.90;2.73;;;;;;;;;;5042834;28;20428;-82
2023/08/25 09:12:26;;;;;;;3.13;2.90;;;;;;;;;;5042878;28;20401;-82
2023/08/25 09:14:52;;;;;;;3.97;3.57;;;;;;;;;;5038351;28;20452;-82
2023/08/25 09:17:19;;;;;;;4.30;3.58;;;;;;;;;;5032425;28;20405;-82
2023/08/25 09:19:45;;;;;;;5.03;3.03;;;;;;;;;;5041386;28;20944;-83
2023/08/25 09:22:13;;;;;;;3.58;3.20;;;;;;;;;;5044547;28;20433;-82
2023/08/25 09:24:39;;;;;;;4.60;4.05;;;;;;;;;;5042072;28;20437;-82
2023/08/25 09:27:05;;;;;;;4.90;3.35;;;;;;;;;;5043495;28;20406;-82
2023/08/25 09:29:41;;;;;;;3.17;2.88;;;;;;;;;;5042787;28;20804;-82
2023/08/25 09:32:07;;;;;;;3.40;2.70;;;;;;;;;;5044079;28;20452;-82
2023/08/25 09:34:33;;;;;;;4.13;3.10;;;;;;;;;;5038482;28;20423;-82
2023/08/25 09:37:01;;;;;;;3.15;2.85;;;;;;;;;;5025590;28;20394;-83
2023/08/25 09:39:27;;;;;;;4.07;3.10;;;;;;;;;;5041092;28;20478;-82
2023/08/25 09:41:53;;;;;;;4.80;3.25;;;;;;;;;;5038850;28;20407;-82
2023/08/25 09:44:19;;;;;;;4.05;2.78;;;;;;;;;;5040732;28;20938;-83
2023/08/25 09:46:45;;;;;;;3.47;3.10;;;;;;;;;;5039874;28;20407;-82
2023/08/25 09:49:14;;;;;;;3.50;3.00;;;;;;;;;;5040113;28;20376;-83
2023/08/25 09:51:41;;;;;;;3.50;3.20;;;;;;;;;;5041934;28;20391;-83
2023/08/25 09:54:08;;;;;;;3.50;3.20;;;;;;;;;;5042573;28;20411;-82
2023/08/25 09:56:35;;;;;;;3.92;3.15;;;;;;;;;;5041462;28;20383;-82
2023/08/25 09:59:05;;;;;;;3.60;3.30;;;;;;;;;;5041175;28;20383;-82
2023/08/25 10:01:35;;;;;;;3.80;3.40;;;;;;;;;;5041467;28;20391;-82
2023/08/25 10:04:02;;;;;;;3.58;3.28;;;;;;;;;;5041582;28;20387;-83
2023/08/25 10:06:31;;;;;;;3.65;3.35;;;;;;;;;;5038970;28;20889;-83
2023/08/25 10:08:57;;;;;;;6.05;3.53;;;;;;;;;;5040556;28;20390;-83
2023/08/25 10:11:24;;;;;;;4.95;3.85;;;;;;;;;;5042058;28;20394;-82
2023/08/25 10:13:54;;;;;;;3.95;3.20;;;;;;;;;;5041708;28;20430;-82
2023/08/25 10:16:20;;;;;;;4.45;4.00;;;;;;;;;;5030179;28;20396;-82
2023/08/25 10:18:47;;;;;;;4.10;3.70;;;;;;;;;;5038248;28;20897;-82
2023/08/25 10:21:13;;;;;;;4.28;3.88;;;;;;;;;;5038776;28;20395;-83
2023/08/25 10:23:40;;;;;;;4.22;3.65;;;;;;;;;;5039392;28;20379;-82
2023/08/25 10:26:06;;;;;;;4.28;3.30;;;;;;;;;;5041901;28;20417;-82
2023/08/25 10:28:33;;;;;;;4.03;3.63;;;;;;;;;;5041766;28;20741;-82
2023/08/25 10:30:59;;;;;;;6.03;3.72;;;;;;;;;;5025887;28;20389;-83
2023/08/25 10:33:25;;;;;;;5.05;3.95;;;;;;;;;;5038119;28;20425;-82
2023/08/25 10:35:54;;;;;;;5.25;3.50;;;;;;;;;;5040485;28;20387;-83
2023/08/25 10:38:20;;;;;;;5.03;3.75;;;;;;;;;;5040682;28;20383;-83
2023/08/25 10:40:53;;;;;;;4.40;3.25;;;;;;;;;;5040364;28;20430;-82
2023/08/25 10:43:25;;;;;;;4.85;4.00;;;;;;;;;;5035491;28;20383;-82
2023/08/25 10:45:52;;;;;;;5.28;3.88;;;;;;;;;;5039033;28;20406;-82
2023/08/25 10:48:21;;;;;;;4.20;3.78;;;;;;;;;;5032594;28;20753;-83
2023/08/25 10:50:47;;;;;;;4.85;4.20;;;;;;;;;;5040036;28;20390;-82
2023/08/25 10:53:33;;;;;;;6.78;3.92;;;;;;;;;;5040607;28;20383;-83
2023/08/25 10:56:12;;;;;;;4.57;4.00;;;;;;;;;;5036214;28;20429;-83
2023/08/25 10:58:39;;;;;;;4.30;3.80;;;;;;;;;;5040177;28;20422;-83
2023/08/25 11:01:05;;;;;;;6.20;4.07;;;;;;;;;;5037165;28;20441;-82
2023/08/25 11:03:48;;;;;;;4.10;3.67;;;;;;;;;;5037190;28;20383;-83
2023/08/25 11:06:33;;;;;;;5.80;3.88;;;;;;;;;;5037680;28;20445;-83
2023/08/25 11:08:59;;;;;;;4.25;3.90;;;;;;;;;;5038324;28;20382;-83
2023/08/25 11:11:25;;;;;;;6.03;4.10;;;;;;;;;;5036666;28;20379;-84
2023/08/25 11:13:53;;;;;;;4.47;4.07;;;;;;;;;;5039350;28;20410;-83
2023/08/25 11:16:19;;;;;;;4.03;3.50;;;;;;;;;;5039186;28;20474;-83
2023/08/25 11:18:45;;;;;;;3.90;3.60;;;;;;;;;;5033557;28;20385;-83
2023/08/25 11:21:11;;;;;;;3.92;3.63;;;;;;;;;;5032455;28;20414;-83
2023/08/25 11:23:38;;;;;;;4.38;4.03;;;;;;;;;;5040382;28;20836;-82
2023/08/25 11:26:04;;;;;;;4.38;3.97;;;;;;;;;;5039766;28;20390;-83
2023/08/25 11:28:30;;;;;;;4.88;3.88;;;;;;;;;;5039134;28;20383;-82
2023/08/25 11:30:57;;;;;;;5.35;4.15;;;;;;;;;;5039530;28;20406;-83
2023/08/25 11:33:25;;;;;;;4.60;4.20;;;;;;;;;;5039521;28;20384;-83
2023/08/25 11:35:52;;;;;;;4.20;3.90;;;;;;;;;;5039821;28;20502;-82
2023/08/25 11:38:18;;;;;;;5.13;4.60;;;;;;;;;;5040271;28;20389;-83
2023/08/25 11:40:44;;;;;;;4.53;4.13;;;;;;;;;;5039651;28;20439;-83
2023/08/25 11:43:10;;;;;;;4.75;4.07;;;;;;;;;;5039461;28;20444;-83
2023/08/25 11:45:37;;;;;;;4.85;4.00;;;;;;;;;;5038816;28;20391;-82
2023/08/25 11:48:04;;;;;;;4.68;4.28;;;;;;;;;;5037346;28;20407;-82
2023/08/25 11:50:30;;;;;;;4.47;3.85;;;;;;;;;;5038652;28;20422;-83
2023/08/25 11:52:56;;;;;;;4.78;3.70;;;;;;;;;;5042073;28;20852;-83
2023/08/25 11:55:32;;;;;;;5.03;4.15;;;;;;;;;;5041102;28;20427;-83
2023/08/25 11:57:57;;;;;;;4.20;3.72;;;;;;;;;;5041522;28;20465;-83
2023/08/25 12:00:23;;;;;;;5.60;4.10;;;;;;;;;;5042095;28;20417;-83
2023/08/25 12:02:59;;;;;;;4.00;3.60;;;;;;;;;;5040914;28;20387;-83
2023/08/25 12:05:28;;;;;;;4.30;3.90;;;;;;;;;;5040659;28;20391;-84
2023/08/25 12:07:59;;;;;;;4.20;3.80;;;;;;;;;;5042103;28;20382;-83
2023/08/25 12:10:25;;;;;;;3.88;3.58;;;;;;;;;;5038018;28;20427;-83
2023/08/25 12:12:53;;;;;;;4.10;3.80;;;;;;;;;;5042084;28;20407;-83
2023/08/25 12:15:19;;;;;;;4.35;3.85;;;;;;;;;;5041675;28;20430;-83
2023/08/25 12:17:47;;;;;;;6.70;3.97;;;;;;;;;;5041546;28;20379;-83
2023/08/25 12:20:14;;;;;;;5.57;4.75;;;;;;;;;;5041451;28;20387;-82
2023/08/25 12:22:54;;;;;;;6.00;4.47;;;;;;;;;;5039815;28;20387;-83
2023/08/25 12:25:21;;;;;;;6.78;5.63;;;;;;;;;;5040666;28;21153;-83
2023/08/25 12:27:48;;;;;;;9.40;6.85;;;;;;;;;;5022542;28;20389;-82
2023/08/25 12:30:14;;;;;;;7.95;5.28;;;;;;;;;;5041312;28;20391;-83
2023/08/25 12:32:40;;;;;;;5.05;4.65;;;;;;;;;;5042396;28;20392;-83
2023/08/25 12:35:06;;;;;;;7.38;6.05;;;;;;;;;;5041727;28;20422;-83
2023/08/25 12:37:32;;;;;;;5.85;5.35;;;;;;;;;;5041737;28;20845;-83
2023/08/25 12:39:58;;;;;;;6.85;6.20;;;;;;;;;;5041669;28;20394;-82
2023/08/25 12:42:24;;;;;;;6.00;5.10;;;;;;;;;;5040647;28;20391;-83
2023/08/25 12:44:51;;;;;;;6.45;5.78;;;;;;;;;;5041581;28;20379;-83
2023/08/25 12:47:17;;;;;;;13.55;10.40;;;;;;;;;;5036373;28;20395;-82
2023/08/25 12:49:43;;;;;;;6.72;5.30;;;;;;;;;;5041416;28;20402;-83
2023/08/25 12:52:09;;;;;;;5.57;4.60;;;;;;;;;;5040290;28;20792;-83
2023/08/25 12:54:36;;;;;;;4.87;4.37;;;;;;;;;;5039830;28;20435;-82
2023/08/25 12:57:02;;;;;;;4.70;4.30;;;;;;;;;;5041346;28;20387;-83
2023/08/25 12:59:28;;;;;;;5.18;4.68;;;;;;;;;;5040184;28;20458;-83
2023/08/25 13:01:54;;;;;;;6.68;4.47;;;;;;;;;;5041001;28;20387;-83
2023/08/25 13:04:20;;;;;;;5.32;4.82;;;;;;;;;;5039728;28;20418;-82
2023/08/25 13:06:46;;;;;;;4.70;4.30;;;;;;;;;;5035740;28;20386;-83
2023/08/25 13:09:12;;;;;;;5.07;4.10;;;;;;;;;;5038446;28;20391;-83
2023/08/25 13:11:38;;;;;;;5.03;4.30;;;;;;;;;;5039083;28;20380;-83
2023/08/25 13:14:05;;;;;;;6.32;4.50;;;;;;;;;;5039694;28;20791;-83
2023/08/25 13:16:31;;;;;;;5.32;4.65;;;;;;;;;;5040306;28;20398;-83
2023/08/25 13:18:57;;;;;;;6.60;4.95;;;;;;;;;;5040611;28;20394;-83
2023/08/25 13:21:23;;;;;;;10.15;7.00;;;;;;;;;;5040206;28;20411;-83
2023/08/25 13:23:49;;;;;;;5.20;4.57;;;;;;;;;;5039957;28;20880;-83
2023/08/25 13:26:15;;;;;;;5.57;4.50;;;;;;;;;;5019228;28;20408;-83
2023/08/25 13:28:41;;;;;;;5.43;4.28;;;;;;;;;;5033268;28;20826;-83
2023/08/25 13:31:07;;;;;;;5.05;4.65;;;;;;;;;;5036481;28;20484;-83
2023/08/25 13:33:33;;;;;;;4.75;4.25;;;;;;;;;;5038558;28;20392;-83
2023/08/25 13:35:59;;;;;;;4.95;4.53;;;;;;;;;;5038979;28;20391;-83
2023/08/25 13:38:25;;;;;;;5.68;5.07;;;;;;;;;;5039195;28;20387;-83
2023/08/25 13:40:51;;;;;;;10.07;8.50;;;;;;;;;;5039570;28;20552;-83
2023/08/25 13:43:17;;;;;;;11.45;9.90;;;;;;;;;;5039307;28;20464;-83
2023/08/25 13:45:45;;;;;;;7.50;6.53;;;;;;;;;;5021073;28;20787;-83
2023/08/25 13:48:11;;;;;;;9.93;8.27;;;;;;;;;;5034056;28;20411;-84
2023/08/25 13:50:37;;;;;;;14.90;10.68;;;;;;;;;;5039681;28;20376;-83
2023/08/25 13:53:04;;;;;;;8.93;7.40;;;;;;;;;;5039130;28;20398;-82
2023/08/25 13:55:30;;;;;;;6.20;5.50;;;;;;;;;;5038742;28;20470;-82
2023/08/25 13:57:57;;;;;;;9.37;7.13;;;;;;;;;;5037392;28;20967;-83
2023/08/25 14:00:24;;;;;;;12.43;9.48;;;;;;;;;;5038242;28;20391;-83
2023/08/25 14:02:50;;;;;;;10.30;7.97;;;;;;;;;;5035701;28;20647;-83
2023/08/25 14:05:17;;;;;;;9.18;7.95;;;;;;;;;;5038144;28;20389;-82
2023/08/25 14:07:44;;;;;;;8.85;7.15;;;;;;;;;;5036835;28;20390;-82
2023/08/25 14:10:10;;;;;;;5.90;5.40;;;;;;;;;;5037419;28;20395;-86
2023/08/25 14:12:38;;;;;;;6.50;5.85;;;;;;;;;;5019773;28;20405;-84
2023/08/25 14:15:05;;;;;;;5.70;5.10;;;;;;;;;;5036892;28;20737;-82
2023/08/25 14:17:31;;;;;;;10.50;5.87;;;;;;;;;;5037270;28;20490;-82
2023/08/25 14:19:57;;;;;;;5.63;5.13;;;;;;;;;;5037232;28;20407;-83
2023/08/25 14:22:23;;;;;;;8.83;6.23;;;;;;;;;;5023510;28;20466;-83
2023/08/25 14:24:49;;;;;;;11.25;8.82;;;;;;;;;;5036945;28;20725;-83
2023/08/25 14:27:15;;;;;;;11.60;8.10;;;;;;;;;;5037823;28;20402;-83
2023/08/25 14:29:41;;;;;;;9.02;7.45;;;;;;;;;;5037911;28;20390;-83
2023/08/25 14:32:07;;;;;;;7.40;6.30;;;;;;;;;;5037166;28;20383;-84
2023/08/25 14:34:34;;;;;;;9.98;6.15;;;;;;;;;;5037271;28;20422;-83
2023/08/25 14:37:00;;;;;;;5.05;4.65;;;;;;;;;;5037440;28;20673;-83
2023/08/25 14:39:26;;;;;;;5.30;4.80;;;;;;;;;;5036276;28;20375;-83
2023/08/25 14:41:55;;;;;;;4.80;4.43;;;;;;;;;;5038004;28;20706;-83